Thompson Airport
CYTH : now visible

Airfield :











YOU CAN JOIN US ON...

 
LOGIN :

Register | Disclaimer

   EN    FR    IT 

 









Legend :    VFR   Marginal VFR   IFR   Intensive IFR   Very Intensive IFR
Visi :
Ceiling :
>= 8 km
>= 3000ft
5 to 8 km
1000 to 3000 ft
1500m to 5 km
500 to 1000 ft
800 to 1500m
200 to 500 ft
< 800m
< 200 ft
Symbols :   Thunderstorms  Fog  Heavy snow  Heavy precipitations  Wind > 20 kt






- Airport Elevation : 729 ft
- IATA code : YTH


CYTH - Thompson

CURRENT METAR :
  • 071900Z 30010G18KT 15SM BKN033 OVC160 10/03 A2999 RMK SC7AC1 SLP170

EXPIRED METARs :
  • 071800Z 28011G17KT 15SM SCT035 BKN160 OVC240 10/02 A2998 RMK SC3AC3CI2 SLP168
  • 071700Z 28010KT 15SM SCT045 BKN160 OVC240 09/01 A3000 RMK SC1AC4CI3 SLP174

TAF TAF CYTH
Valid from the 07 at 19:00 until the 08 at 07:00 UTC


071840Z 0719/0807 30012G22KT P6SM SCT030 BKN160
TEMPO 0719/0723 BKN030 BKN160
FM080000 32008KT P6SM FEW030 SCT240 RMK NXT FCST BY 080100Z
CZWG FIR / North America



MET'MAP, your aeronautical weather chart ! - Copyright ORBIFLY December 2007 - Disclaimer

ORBIFLY MET'MAP TEAM :

Programming & Development : Alexandra Zaïnal
Original concept : Baudouin d'Aumeries
Technical & hardware support : Manuel Goepfert
Assistance : Marc-Olivier Méhu




SOURCES & CREDITS :

   NOAA       Earth
Advisory